METAR AND TAF INFORMATION
METAR FOR LIMC
ADDS - METARS form results

(0241 UTC 13 November 2019)
Data provider http://aviationweather.gov/metar/data/
 
METAR text: LIMC 130220Z 36003KT 330V030 9999 MIFG NSC M01/M01 Q0996 NOSIG
Conditions at: LIMC (MILANO/MALPENSA , IT) observed 0220 UTC 13 November 2019
Temperature: -1.0°C (30°F)
Dewpoint: -1.0°C (30°F) [RH = 100%]
Pressure (altimeter): 29.41 inches Hg (996.0 mb)
Winds: from the N (360 degrees) at 3 MPH (3 knots; 1.5 m/s)
Visibility: 6 or more miles (10+ km)
Ceiling: at least 12,000 feet AGL
Clouds: sky clear below 12,000 feet AGL
Weather: MIFG  (shallow fog)

METAR text: LIMC 130150Z 36005KT 9999 MIFG NSC M00/M00 Q0995 NOSIG
Conditions at: LIMC (MILANO/MALPENSA , IT) observed 0150 UTC 13 November 2019
Temperature: 0.0°C (32°F)
Dewpoint: 0.0°C (32°F) [RH = 100%]
Pressure (altimeter): 29.38 inches Hg (995.0 mb)
Winds: from the N (360 degrees) at 6 MPH (5 knots; 2.6 m/s)
Visibility: 6 or more miles (10+ km)
Ceiling: at least 12,000 feet AGL
Clouds: sky clear below 12,000 feet AGL
Weather: MIFG  (shallow fog)

Forecast for: LIMC (MILANO/MALPENSA , IT)
Text: TAF LIMC 122300Z 1300/1406 35010KT 9999 SCT060
Forecast period: 0000 UTC 13 November 2019 to 0600 UTC 14 November 2019
Forecast type: FROM: standard forecast or significant change
Winds: from the N (350 degrees) at 12 MPH (10 knots; 5.1 m/s)
Visibility: 6 or more miles 10+ km)
Ceiling: at least 12,000 feet AGL
Clouds: scattered clouds at 6000 feet AGL
Weather: no significant weather forecast for this period
Text: TEMPO 1300/1307 2000 BCFG SCT005
Forecast period: 0000 to 0700 UTC 13 November 2019
Forecast type: TEMPORARY: The following changes expected for less than half the time period
Visibility: 1.24 miles (2.00 km)
Ceiling: at least 12,000 feet AGL
Clouds: scattered clouds at 500 feet AGL
Weather: BCFG  (patches of fog)

 AIRPORT MAP

 RUNWAY INFORMATION
Runway 17L Runway length 12861 ft Runway width 197 ft
Runway elevation 745 ft Runway displaced threshold 3094 ft Runway heading 170
Runway 35R Runway length 12861 ft Runway width 197 ft
Runway elevation 691 ft Runway displaced threshold 0 ft Runway heading 350
Runway 17R Runway length 12861 ft Runway width 197 ft
Runway elevation 764 ft Runway displaced threshold 0 ft Runway heading 170
Runway 35L Runway length 12861 ft Runway width 197 ft
Runway elevation 696 ft Runway displaced threshold 1329 ft Runway heading 350

 AIRPORT FREQUENCIES
Type APP Name MILANO APP Frequency 132.7 MHZ
Type ATIS Name ATIS Frequency 120.025 MHZ
Type CLD Name CLNC DEL Frequency 120.9 MHZ
Type DEP Name MILANO DEP Frequency 126.75 MHZ
Type GND Name GND Frequency 121.9 MHZ
Type TWR Name TWR Frequency 119 MHZ

 AIRPORT NEAR NAVIGATION AIDS
Type VOR-DME Name Malpensa Frequency 111200 KHZ
Type NDB Name Malpensa Frequency 364 KHZ



Powered by Virtual Airlines Manager [v2.6.2]